createdAt,value
2019-01-16T00:00:41.207Z,1.30
2019-01-16T00:01:41.215Z,1.20
2019-01-16T00:02:41.219Z,1.30
2019-01-16T00:03:41.221Z,1.50
2019-01-16T00:04:41.227Z,1.20
2019-01-16T00:05:41.235Z,1.20
2019-01-16T00:06:41.243Z,1.20
2019-01-16T00:07:41.246Z,1.20
2019-01-16T00:08:41.251Z,1.30
2019-01-16T00:09:41.256Z,1.30
2019-01-16T00:10:41.264Z,1.30
2019-01-16T00:11:41.267Z,1.20
2019-01-16T00:12:41.272Z,1.30
2019-01-16T00:13:41.282Z,1.80
2019-01-16T00:14:41.283Z,1.20
2019-01-16T00:15:41.289Z,1.20
2019-01-16T00:16:41.296Z,1.30
2019-01-16T00:17:41.301Z,1.20
2019-01-16T00:18:41.306Z,1.20
2019-01-16T00:19:41.312Z,1.20
2019-01-16T00:20:41.318Z,1.70
2019-01-16T00:21:41.321Z,1.20
2019-01-16T00:22:41.328Z,1.20
2019-01-16T00:23:41.332Z,1.30
2019-01-16T00:24:41.341Z,1.30
2019-01-16T00:25:41.346Z,1.20
2019-01-16T00:26:41.352Z,1.30
2019-01-16T00:27:41.354Z,1.20
2019-01-16T00:28:41.358Z,1.20
2019-01-16T00:29:41.366Z,1.20
2019-01-16T00:30:41.371Z,1.20
2019-01-16T00:31:41.374Z,1.20
2019-01-16T00:32:41.380Z,1.50
2019-01-16T00:33:41.387Z,1.30
2019-01-16T00:34:41.394Z,1.40
2019-01-16T00:35:41.402Z,1.30
2019-01-16T00:36:41.403Z,1.20
2019-01-16T00:37:41.411Z,1.40
2019-01-16T00:38:41.415Z,1.30
2019-01-16T00:39:41.418Z,1.60
2019-01-16T00:40:41.422Z,1.50
2019-01-16T00:41:41.432Z,1.80
2019-01-16T00:42:41.434Z,20.80
2019-01-16T00:43:41.442Z,31.70
2019-01-16T00:44:41.444Z,27.60
2019-01-16T00:45:41.452Z,25.30
2019-01-16T00:46:41.456Z,19.40
2019-01-16T00:47:41.464Z,11.40
2019-01-16T00:48:41.468Z,9.30
2019-01-16T00:49:41.474Z,7.20
2019-01-16T00:50:41.478Z,9.80
2019-01-16T00:51:41.485Z,6.80
2019-01-16T00:52:41.490Z,3.20
2019-01-16T00:53:41.497Z,3.50
2019-01-16T00:54:41.502Z,2.20
2019-01-16T00:55:41.507Z,2.50
2019-01-16T00:56:41.513Z,3.50
2019-01-16T00:57:41.517Z,3.20
2019-01-16T00:58:41.523Z,2.80
2019-01-16T00:59:41.528Z,2.60
2019-01-16T01:00:41.535Z,2.30
2019-01-16T01:01:41.541Z,2.90
2019-01-16T01:02:41.546Z,3.50
2019-01-16T01:03:41.551Z,4.00
2019-01-16T01:04:41.556Z,4.80
2019-01-16T01:05:41.563Z,3.10
2019-01-16T01:06:41.569Z,2.60
2019-01-16T01:07:41.576Z,2.40
2019-01-16T01:08:41.576Z,1.70
2019-01-16T01:09:41.583Z,1.40
2019-01-16T01:10:41.590Z,1.50
2019-01-16T01:11:41.596Z,1.20
2019-01-16T01:12:41.599Z,1.30
2019-01-16T01:13:41.607Z,1.20
2019-01-16T01:14:41.613Z,1.20
2019-01-16T01:15:41.617Z,1.20
2019-01-16T01:16:41.623Z,1.30
2019-01-16T01:17:41.627Z,1.30
2019-01-16T01:18:41.635Z,1.20
2019-01-16T01:19:41.641Z,1.20
2019-01-16T01:20:41.647Z,1.20
2019-01-16T01:21:41.654Z,1.40
2019-01-16T01:22:41.657Z,1.40
2019-01-16T01:23:41.664Z,1.30
2019-01-16T01:24:41.669Z,1.20
2019-01-16T01:25:41.675Z,1.40
2019-01-16T01:26:41.682Z,1.40
2019-01-16T01:27:41.687Z,1.20
2019-01-16T01:28:41.690Z,1.50
2019-01-16T01:29:41.699Z,1.40
2019-01-16T01:30:41.703Z,1.50
2019-01-16T01:31:41.709Z,1.20
2019-01-16T01:32:41.713Z,1.20
2019-01-16T01:33:41.719Z,1.20
2019-01-16T01:34:41.725Z,1.20
2019-01-16T01:35:41.731Z,1.20
2019-01-16T01:36:41.739Z,1.20
2019-01-16T01:37:41.746Z,1.30
2019-01-16T01:38:41.749Z,1.30
2019-01-16T01:39:41.756Z,1.40
2019-01-16T01:40:41.761Z,1.30
2019-01-16T01:41:41.768Z,1.20
2019-01-16T01:42:41.770Z,3.30
2019-01-16T01:43:41.780Z,1.30
2019-01-16T01:44:41.783Z,1.50
2019-01-16T01:45:41.789Z,1.20
2019-01-16T01:46:41.793Z,1.20
2019-01-16T01:47:41.799Z,1.20
2019-01-16T01:48:41.811Z,1.20
2019-01-16T01:49:41.815Z,2.10
2019-01-16T01:50:41.821Z,1.20
2019-01-16T01:51:41.830Z,1.80
2019-01-16T01:52:41.834Z,1.20
2019-01-16T01:53:41.834Z,1.70
2019-01-16T01:54:41.847Z,1.20
2019-01-16T01:55:41.849Z,1.30
2019-01-16T01:56:41.852Z,1.40
2019-01-16T01:57:41.862Z,1.30
2019-01-16T01:58:41.869Z,1.50
2019-01-16T01:59:41.870Z,1.20
2019-01-16T02:00:41.879Z,1.50
2019-01-16T02:01:41.887Z,1.30
2019-01-16T02:02:41.893Z,1.30
2019-01-16T02:03:41.897Z,1.30
2019-01-16T02:04:41.907Z,1.40
2019-01-16T02:05:41.906Z,1.40
2019-01-16T02:06:41.913Z,1.20
2019-01-16T02:07:41.922Z,1.40
2019-01-16T02:08:41.927Z,1.50
2019-01-16T02:09:41.931Z,1.30
2019-01-16T02:10:41.937Z,1.50
2019-01-16T02:11:41.947Z,1.40
2019-01-16T02:12:41.951Z,1.40
2019-01-16T02:13:41.950Z,1.30
2019-01-16T02:14:41.962Z,1.40
2019-01-16T02:15:41.963Z,1.30
2019-01-16T02:16:41.973Z,1.40
2019-01-16T02:17:41.980Z,1.30
2019-01-16T02:18:47.352Z,1.30
2019-01-16T02:19:41.990Z,1.30
2019-01-16T02:20:41.998Z,1.30
2019-01-16T02:21:42.003Z,1.20
2019-01-16T02:22:42.005Z,1.40
2019-01-16T02:23:42.012Z,1.30
2019-01-16T02:24:42.018Z,1.30
2019-01-16T02:25:42.028Z,1.40
2019-01-16T02:26:42.031Z,1.60
2019-01-16T02:27:42.035Z,1.50
2019-01-16T02:28:42.050Z,1.50
2019-01-16T02:29:42.051Z,1.50
2019-01-16T02:30:42.056Z,1.50
2019-01-16T02:31:42.059Z,1.40
2019-01-16T02:32:42.069Z,1.20
2019-01-16T02:33:42.074Z,1.30
2019-01-16T02:34:42.082Z,1.40
2019-01-16T02:35:42.087Z,1.40
2019-01-16T02:36:42.093Z,1.20
2019-01-16T02:37:42.098Z,1.30
2019-01-16T02:38:42.104Z,1.50
2019-01-16T02:39:42.115Z,1.20
2019-01-16T02:40:42.111Z,1.20
2019-01-16T02:41:42.121Z,1.20
2019-01-16T02:42:42.126Z,1.20
2019-01-16T02:43:42.134Z,1.20
2019-01-16T02:44:42.141Z,1.20
2019-01-16T02:45:42.145Z,2.70
2019-01-16T02:46:42.150Z,1.20
2019-01-16T02:47:42.156Z,1.20
2019-01-16T02:48:42.163Z,1.20
2019-01-16T02:49:42.169Z,1.20
2019-01-16T02:50:42.175Z,1.20
2019-01-16T02:51:42.180Z,1.20
2019-01-16T02:52:42.190Z,1.20
2019-01-16T02:53:42.193Z,1.20
2019-01-16T02:54:42.198Z,1.20
2019-01-16T02:55:42.207Z,1.20
2019-01-16T02:56:42.214Z,1.30
2019-01-16T02:57:42.217Z,1.30
2019-01-16T02:58:42.221Z,1.20
2019-01-16T02:59:42.227Z,2.00
2019-01-16T03:00:42.238Z,1.30
2019-01-16T03:01:42.243Z,1.20
2019-01-16T03:02:42.246Z,1.20
2019-01-16T03:03:42.252Z,1.20
2019-01-16T03:04:42.258Z,1.20
2019-01-16T03:05:42.265Z,1.20
2019-01-16T03:06:42.269Z,1.20
2019-01-16T03:07:42.279Z,1.20
2019-01-16T03:08:42.281Z,1.20
2019-01-16T03:09:42.288Z,1.30
2019-01-16T03:10:42.293Z,1.70
2019-01-16T03:11:42.301Z,1.30
2019-01-16T03:12:42.308Z,1.20
2019-01-16T03:13:42.312Z,1.20
2019-01-16T03:14:42.319Z,1.20
2019-01-16T03:15:42.324Z,1.20
2019-01-16T03:16:42.331Z,1.20
2019-01-16T03:17:42.341Z,1.20
2019-01-16T03:18:42.345Z,1.20
2019-01-16T03:19:42.359Z,1.30
2019-01-16T03:20:42.355Z,1.20
2019-01-16T03:21:42.361Z,1.20
2019-01-16T03:22:42.366Z,1.20
2019-01-16T03:23:42.372Z,1.20
2019-01-16T03:24:42.377Z,1.20
2019-01-16T03:25:42.387Z,1.20
2019-01-16T03:26:42.389Z,1.20
2019-01-16T03:27:42.399Z,1.20
2019-01-16T03:28:42.402Z,1.20
2019-01-16T03:29:42.412Z,1.30
2019-01-16T03:30:42.424Z,1.20
2019-01-16T03:31:42.430Z,1.30
2019-01-16T03:32:42.433Z,1.20
2019-01-16T03:33:42.436Z,1.20
2019-01-16T03:34:42.441Z,1.20
2019-01-16T03:35:42.446Z,1.20
2019-01-16T03:36:42.454Z,1.20
2019-01-16T03:37:42.461Z,1.20
2019-01-16T03:38:42.465Z,1.20
2019-01-16T03:39:42.470Z,1.20
2019-01-16T03:40:42.476Z,1.30
2019-01-16T03:41:42.483Z,1.20
2019-01-16T03:42:42.490Z,1.20
2019-01-16T03:43:42.496Z,1.30
2019-01-16T03:44:42.505Z,1.20
2019-01-16T03:45:42.509Z,1.20
2019-01-16T03:46:42.514Z,1.20
2019-01-16T03:47:42.520Z,1.20
2019-01-16T03:48:42.529Z,1.40
2019-01-16T03:49:42.534Z,1.20
2019-01-16T03:50:42.540Z,1.20
2019-01-16T03:51:42.546Z,1.30
2019-01-16T03:52:42.553Z,1.20
2019-01-16T03:53:42.559Z,1.20
2019-01-16T03:54:42.563Z,1.20
2019-01-16T03:55:42.572Z,1.20
2019-01-16T03:56:42.575Z,1.20
2019-01-16T03:57:42.584Z,1.20
2019-01-16T03:58:42.588Z,1.20
2019-01-16T03:59:42.598Z,1.20
2019-01-16T04:00:42.605Z,1.80
2019-01-16T04:01:42.608Z,1.20
2019-01-16T04:02:42.674Z,1.20
2019-01-16T04:03:42.619Z,1.20
2019-01-16T04:04:42.629Z,1.20
2019-01-16T04:05:42.636Z,1.20
2019-01-16T04:06:42.642Z,1.20
2019-01-16T04:07:42.648Z,1.30
2019-01-16T04:08:42.651Z,1.20
2019-01-16T04:09:42.656Z,1.20
2019-01-16T04:10:42.663Z,1.20
2019-01-16T04:11:42.670Z,1.20
2019-01-16T04:12:42.678Z,1.30
2019-01-16T04:13:42.682Z,1.20
2019-01-16T04:14:42.689Z,1.30
2019-01-16T04:15:42.694Z,1.20
2019-01-16T04:16:42.704Z,1.20
2019-01-16T04:17:42.708Z,1.20
2019-01-16T04:18:42.711Z,1.20
2019-01-16T04:19:42.718Z,1.20
2019-01-16T04:20:42.727Z,1.20
2019-01-16T04:21:42.732Z,1.20
2019-01-16T04:22:42.739Z,1.20
2019-01-16T04:23:42.745Z,1.80
2019-01-16T04:24:42.750Z,1.20
2019-01-16T04:25:42.757Z,1.20
2019-01-16T04:26:42.763Z,1.20
2019-01-16T04:27:42.770Z,1.20
2019-01-16T04:28:42.775Z,1.30
2019-01-16T04:29:42.784Z,1.30
2019-01-16T04:30:42.788Z,1.40
2019-01-16T04:31:42.798Z,1.30
2019-01-16T04:32:42.800Z,1.40
2019-01-16T04:33:42.806Z,1.30
2019-01-16T04:34:42.814Z,1.50
2019-01-16T04:35:42.827Z,1.20
2019-01-16T04:36:42.832Z,1.20
2019-01-16T04:37:42.834Z,1.20
2019-01-16T04:38:42.842Z,1.20
2019-01-16T04:39:42.845Z,1.30
2019-01-16T04:40:42.855Z,4.10
2019-01-16T04:41:42.862Z,1.60
2019-01-16T04:42:42.864Z,1.20
2019-01-16T04:43:42.873Z,1.20
2019-01-16T04:44:42.877Z,1.20
2019-01-16T04:45:42.888Z,1.20
2019-01-16T04:46:42.887Z,1.60
2019-01-16T04:47:42.898Z,1.20
2019-01-16T04:48:42.907Z,1.20
2019-01-16T04:49:42.910Z,1.30
2019-01-16T04:50:42.914Z,1.20
2019-01-16T04:51:42.922Z,1.20
2019-01-16T04:52:42.929Z,1.20
2019-01-16T04:53:42.934Z,1.20
2019-01-16T04:54:42.940Z,1.20
2019-01-16T04:55:42.947Z,1.20
2019-01-16T04:56:42.953Z,1.20
2019-01-16T04:57:42.958Z,1.30
2019-01-16T04:58:42.965Z,1.20
2019-01-16T04:59:42.973Z,1.30
2019-01-16T05:00:42.977Z,1.30
2019-01-16T05:01:42.983Z,1.70
2019-01-16T05:02:42.989Z,2.10
2019-01-16T05:03:42.998Z,1.60
2019-01-16T05:04:43.009Z,3.70
2019-01-16T05:05:43.010Z,2.70
2019-01-16T05:06:43.016Z,2.60
2019-01-16T05:07:43.025Z,3.60
2019-01-16T05:08:43.031Z,2.30
2019-01-16T05:09:43.037Z,2.90
2019-01-16T05:10:43.040Z,1.90
2019-01-16T05:11:43.051Z,1.50
2019-01-16T05:12:43.056Z,1.20
2019-01-16T05:13:43.062Z,1.20
2019-01-16T05:14:43.068Z,1.20
2019-01-16T05:15:43.074Z,1.20
2019-01-16T05:16:43.094Z,1.40
2019-01-16T05:17:43.085Z,1.20
2019-01-16T05:18:43.094Z,1.20
2019-01-16T05:19:43.099Z,1.20
2019-01-16T05:20:43.106Z,1.20
2019-01-16T05:21:43.111Z,1.30
2019-01-16T05:22:43.118Z,1.20
2019-01-16T05:23:43.127Z,1.20
2019-01-16T05:24:43.129Z,1.20
2019-01-16T05:25:43.140Z,1.20
2019-01-16T05:26:43.143Z,1.20
2019-01-16T05:27:43.152Z,1.20
2019-01-16T05:28:43.158Z,1.20
2019-01-16T05:29:43.162Z,1.20
2019-01-16T05:30:43.169Z,1.20
2019-01-16T05:31:43.182Z,1.40
2019-01-16T05:32:43.182Z,1.20
2019-01-16T05:33:43.192Z,1.20
2019-01-16T05:34:43.200Z,1.20
2019-01-16T05:35:43.203Z,1.20
2019-01-16T05:36:43.213Z,1.30
2019-01-16T05:37:43.215Z,1.20
2019-01-16T05:38:43.221Z,1.20
2019-01-16T05:39:43.229Z,1.20
2019-01-16T05:40:43.236Z,1.30
2019-01-16T05:41:43.239Z,1.30
2019-01-16T05:42:43.248Z,1.50
2019-01-16T05:43:43.254Z,1.40
2019-01-16T05:44:43.260Z,1.30
2019-01-16T05:45:43.267Z,1.80
2019-01-16T05:46:43.272Z,1.60
2019-01-16T05:47:43.280Z,1.40
2019-01-16T05:48:43.288Z,1.40
2019-01-16T05:49:46.917Z,1.40
2019-01-16T05:50:43.298Z,1.60
2019-01-16T05:51:43.304Z,1.50
2019-01-16T05:52:43.315Z,1.30
2019-01-16T05:53:43.318Z,1.20
2019-01-16T05:54:43.325Z,1.50
2019-01-16T05:55:43.332Z,1.20
2019-01-16T05:56:43.338Z,1.30
2019-01-16T05:57:43.349Z,1.40
2019-01-16T05:58:43.353Z,1.50
2019-01-16T05:59:43.357Z,1.50
2019-01-16T06:00:43.410Z,1.20
2019-01-16T06:01:43.369Z,1.20
2019-01-16T06:02:43.379Z,1.30
2019-01-16T06:03:43.385Z,1.20
2019-01-16T06:04:43.395Z,1.20
2019-01-16T06:05:43.395Z,1.40
2019-01-16T06:06:43.404Z,1.30
2019-01-16T06:07:43.413Z,1.30
2019-01-16T06:08:43.419Z,1.20
2019-01-16T06:09:43.423Z,1.30
2019-01-16T06:10:43.429Z,1.20
2019-01-16T06:11:43.443Z,1.30
2019-01-16T06:12:43.444Z,1.20
2019-01-16T06:13:43.451Z,1.20
2019-01-16T06:14:43.454Z,1.20
2019-01-16T06:15:43.472Z,1.20
2019-01-16T06:16:43.471Z,1.20
2019-01-16T06:17:43.479Z,1.60
2019-01-16T06:18:43.484Z,1.40
2019-01-16T06:19:43.492Z,1.20
2019-01-16T06:20:43.496Z,1.20
2019-01-16T06:21:43.505Z,1.20
2019-01-16T06:22:43.510Z,1.30
2019-01-16T06:23:43.518Z,1.20
2019-01-16T06:24:43.525Z,1.20
2019-01-16T06:25:43.538Z,1.30
2019-01-16T06:26:43.534Z,1.30
2019-01-16T06:27:43.543Z,1.20
2019-01-16T06:28:43.547Z,1.20
2019-01-16T06:29:43.559Z,1.20
2019-01-16T06:30:43.564Z,1.20
2019-01-16T06:31:43.568Z,1.20
2019-01-16T06:32:43.575Z,1.20
2019-01-16T06:33:43.583Z,1.30
2019-01-16T06:34:43.590Z,1.20
2019-01-16T06:35:43.596Z,1.20
2019-01-16T06:36:43.603Z,1.20
2019-01-16T06:37:43.611Z,1.20
2019-01-16T06:38:43.616Z,1.20
2019-01-16T06:39:43.620Z,1.20
2019-01-16T06:40:43.627Z,1.20
2019-01-16T06:41:43.637Z,1.20
2019-01-16T06:42:43.642Z,1.20
2019-01-16T06:43:43.649Z,1.20
2019-01-16T06:44:43.657Z,1.20
2019-01-16T06:45:43.667Z,1.20
2019-01-16T06:46:43.670Z,1.20
2019-01-16T06:47:43.679Z,1.20
2019-01-16T06:48:43.682Z,1.40
2019-01-16T06:49:43.729Z,1.20
2019-01-16T06:50:43.695Z,1.20
2019-01-16T06:51:43.701Z,1.20
2019-01-16T06:52:43.711Z,1.20
2019-01-16T06:53:43.717Z,1.40
2019-01-16T06:54:43.726Z,1.20
2019-01-16T06:55:43.730Z,1.20
2019-01-16T06:56:43.736Z,1.20
2019-01-16T06:57:43.744Z,1.20
2019-01-16T06:58:43.750Z,1.20
2019-01-16T06:59:43.756Z,1.20
2019-01-16T07:00:43.764Z,1.20
2019-01-16T07:01:43.769Z,1.20
2019-01-16T07:02:43.778Z,1.20
2019-01-16T07:03:43.782Z,1.20
2019-01-16T07:04:43.791Z,1.20
2019-01-16T07:05:43.796Z,1.20
2019-01-16T07:06:43.806Z,1.30
2019-01-16T07:07:43.810Z,1.20
2019-01-16T07:08:43.823Z,1.20
2019-01-16T07:09:43.829Z,1.20
2019-01-16T07:10:43.832Z,1.20
2019-01-16T07:11:43.846Z,1.20
2019-01-16T07:12:43.851Z,1.20
2019-01-16T07:13:43.858Z,1.20
2019-01-16T07:14:43.859Z,1.20
2019-01-16T07:15:43.864Z,1.20
2019-01-16T07:16:43.872Z,1.20
2019-01-16T07:17:43.881Z,1.20
2019-01-16T07:18:43.884Z,2.20
2019-01-16T07:19:43.890Z,1.20
2019-01-16T07:20:43.899Z,1.20
2019-01-16T07:21:43.908Z,1.20
2019-01-16T07:22:43.913Z,1.20
2019-01-16T07:23:43.922Z,1.20
2019-01-16T07:24:43.929Z,1.20
2019-01-16T07:25:43.934Z,1.30
2019-01-16T07:26:43.950Z,1.20
2019-01-16T07:27:43.947Z,1.20
2019-01-16T07:28:43.951Z,1.30
2019-01-16T07:29:43.958Z,1.20
2019-01-16T07:30:43.966Z,1.20
2019-01-16T07:31:43.971Z,1.20
2019-01-16T07:32:43.980Z,1.20
2019-01-16T07:33:43.987Z,1.60
2019-01-16T07:34:43.991Z,1.20
2019-01-16T07:35:44.000Z,1.20
2019-01-16T07:36:44.005Z,1.30
2019-01-16T07:37:44.013Z,1.20
2019-01-16T07:38:44.020Z,1.20
2019-01-16T07:39:44.026Z,1.20
2019-01-16T07:40:44.037Z,1.30
2019-01-16T07:41:44.039Z,1.20
2019-01-16T07:42:46.987Z,1.60
2019-01-16T07:43:44.052Z,1.80
2019-01-16T07:44:44.062Z,1.40
2019-01-16T07:45:44.069Z,1.20
2019-01-16T07:46:44.073Z,1.20
2019-01-16T07:47:44.081Z,1.20
2019-01-16T07:48:44.089Z,1.20
2019-01-16T07:49:44.096Z,1.20
2019-01-16T07:50:44.100Z,1.20
2019-01-16T07:51:44.107Z,1.20
2019-01-16T07:52:44.115Z,1.20
2019-01-16T07:53:44.119Z,1.20
2019-01-16T07:54:44.128Z,1.20
2019-01-16T07:55:44.136Z,1.20
2019-01-16T07:56:44.144Z,1.20
2019-01-16T07:57:44.150Z,1.20
2019-01-16T07:58:44.156Z,1.30
2019-01-16T07:59:44.162Z,1.50
2019-01-16T08:00:44.172Z,1.40
2019-01-16T08:01:44.176Z,1.20
2019-01-16T08:02:44.185Z,1.20
2019-01-16T08:03:44.192Z,1.30
2019-01-16T08:04:44.198Z,1.30
2019-01-16T08:05:44.201Z,1.20
2019-01-16T08:06:44.210Z,1.20
2019-01-16T08:07:44.217Z,1.20
2019-01-16T08:08:44.228Z,1.30
2019-01-16T08:09:44.231Z,1.40
2019-01-16T08:10:44.238Z,1.20
2019-01-16T08:11:44.243Z,1.20
2019-01-16T08:12:44.256Z,1.20
2019-01-16T08:13:44.260Z,1.20
2019-01-16T08:14:44.265Z,1.20
2019-01-16T08:15:44.272Z,1.20
2019-01-16T08:16:44.277Z,1.20
2019-01-16T08:17:44.289Z,1.20
2019-01-16T08:18:44.291Z,1.20
2019-01-16T08:19:44.300Z,1.20
2019-01-16T08:20:44.310Z,1.20
2019-01-16T08:21:44.382Z,1.20
2019-01-16T08:22:44.318Z,1.20
2019-01-16T08:23:44.324Z,1.20
2019-01-16T08:24:44.334Z,1.20
2019-01-16T08:25:44.342Z,1.20
2019-01-16T08:26:45.474Z,1.20
2019-01-16T08:27:44.354Z,1.20
2019-01-16T08:28:44.363Z,1.20
2019-01-16T08:29:44.371Z,1.20
2019-01-16T08:30:44.375Z,1.20
2019-01-16T08:31:44.383Z,1.20
2019-01-16T08:32:44.391Z,1.20
2019-01-16T08:33:44.395Z,2.00
2019-01-16T08:34:44.407Z,1.20
2019-01-16T08:35:44.410Z,1.20
2019-01-16T08:36:44.419Z,1.30
2019-01-16T08:37:44.424Z,1.20
2019-01-16T08:38:44.431Z,1.20
2019-01-16T08:39:44.438Z,1.20
2019-01-16T08:40:44.447Z,1.20
2019-01-16T08:41:44.452Z,1.20
2019-01-16T08:42:44.461Z,1.20
2019-01-16T08:43:44.467Z,1.20
2019-01-16T08:44:44.474Z,1.40
2019-01-16T08:45:44.482Z,1.20
2019-01-16T08:46:44.533Z,1.20
2019-01-16T08:47:44.498Z,1.30
2019-01-16T08:48:44.501Z,1.20
2019-01-16T08:49:44.509Z,1.20
2019-01-16T08:50:44.517Z,1.20
2019-01-16T08:51:44.526Z,1.20
2019-01-16T08:52:44.535Z,1.20
2019-01-16T08:53:44.543Z,2.00
2019-01-16T08:54:44.548Z,1.20
2019-01-16T08:55:44.560Z,1.20
2019-01-16T08:56:44.563Z,1.20
2019-01-16T08:57:44.571Z,1.20
2019-01-16T08:58:44.580Z,1.70
2019-01-16T08:59:44.588Z,1.30
2019-01-16T09:00:44.598Z,1.30
2019-01-16T09:01:44.603Z,1.20
2019-01-16T09:02:44.613Z,1.20
2019-01-16T09:03:44.622Z,1.20
2019-01-16T09:04:44.631Z,1.20
2019-01-16T09:05:44.638Z,1.20
2019-01-16T09:06:44.646Z,1.20
2019-01-16T09:07:44.655Z,1.20
2019-01-16T09:08:44.663Z,1.20
2019-01-16T09:09:44.672Z,1.30
2019-01-16T09:10:44.679Z,1.20
2019-01-16T09:11:44.690Z,1.20
2019-01-16T09:12:44.697Z,1.20
2019-01-16T09:13:44.707Z,1.20
2019-01-16T09:14:44.716Z,1.30
2019-01-16T09:15:44.726Z,1.20
2019-01-16T09:16:44.735Z,1.40
2019-01-16T09:17:44.742Z,1.20
2019-01-16T09:18:44.755Z,1.20
2019-01-16T09:19:44.759Z,1.20
2019-01-16T09:20:44.770Z,1.20
2019-01-16T09:21:44.779Z,1.20
2019-01-16T09:22:45.062Z,1.30
2019-01-16T09:23:44.798Z,1.40
2019-01-16T09:24:44.809Z,1.70
2019-01-16T09:25:44.816Z,1.40
2019-01-16T09:26:44.833Z,1.50
2019-01-16T09:27:44.838Z,1.40
2019-01-16T09:28:44.849Z,1.50
2019-01-16T09:29:44.859Z,1.30
2019-01-16T09:30:44.864Z,1.70
2019-01-16T09:31:44.878Z,1.40
2019-01-16T09:32:44.884Z,1.30
2019-01-16T09:33:44.897Z,1.30
2019-01-16T09:34:44.911Z,1.20
2019-01-16T09:35:44.920Z,1.20
2019-01-16T09:36:44.930Z,1.20
2019-01-16T09:37:44.939Z,1.20
2019-01-16T09:38:44.949Z,1.30
2019-01-16T09:39:44.961Z,1.20
2019-01-16T09:40:44.970Z,1.30
2019-01-16T09:41:44.980Z,1.20
2019-01-16T09:42:44.990Z,1.40
2019-01-16T09:43:45.003Z,1.30
2019-01-16T09:44:45.013Z,1.40
2019-01-16T09:45:45.025Z,1.30
2019-01-16T09:46:45.033Z,1.20
2019-01-16T09:47:45.045Z,1.30
2019-01-16T09:48:45.060Z,1.20
2019-01-16T09:49:45.072Z,1.80
2019-01-16T09:50:47.892Z,1.30
2019-01-16T09:51:45.092Z,1.20
2019-01-16T09:52:45.100Z,1.20
2019-01-16T09:53:45.115Z,1.20
2019-01-16T09:54:45.122Z,1.20
2019-01-16T09:55:45.133Z,1.20
2019-01-16T09:56:45.145Z,1.20
2019-01-16T09:57:45.160Z,1.20
2019-01-16T09:58:45.173Z,1.20
2019-01-16T09:59:45.182Z,1.20
2019-01-16T10:00:45.194Z,1.20
2019-01-16T10:01:45.209Z,1.30
2019-01-16T10:02:45.215Z,1.20
2019-01-16T10:03:45.230Z,1.30
2019-01-16T10:04:45.243Z,1.20
2019-01-16T10:05:45.253Z,1.20
2019-01-16T10:06:45.267Z,1.30
2019-01-16T10:07:45.278Z,1.20
2019-01-16T10:08:45.291Z,2.20
2019-01-16T10:09:45.301Z,1.20
2019-01-16T10:10:45.321Z,1.20
2019-01-16T10:11:45.330Z,1.30
2019-01-16T10:12:45.347Z,1.20
2019-01-16T10:13:45.354Z,1.20
2019-01-16T10:14:45.366Z,1.20
2019-01-16T10:15:45.379Z,1.20
2019-01-16T10:16:45.394Z,1.30
2019-01-16T10:17:45.408Z,1.50
2019-01-16T10:18:45.425Z,1.20
2019-01-16T10:19:45.434Z,1.20
2019-01-16T10:20:46.182Z,1.20
2019-01-16T10:21:45.458Z,1.40
2019-01-16T10:22:45.475Z,1.20
2019-01-16T10:23:45.488Z,1.20
2019-01-16T10:24:45.501Z,1.20
2019-01-16T10:25:45.513Z,1.20
2019-01-16T10:26:45.528Z,1.20
2019-01-16T10:27:45.542Z,1.30
2019-01-16T10:28:45.555Z,1.20
2019-01-16T10:29:45.574Z,1.20
2019-01-16T10:30:45.582Z,1.40
2019-01-16T10:31:45.600Z,1.20
2019-01-16T10:32:45.614Z,1.20
2019-01-16T10:33:45.628Z,1.20
2019-01-16T10:34:45.643Z,1.20
2019-01-16T10:35:45.656Z,1.20
2019-01-16T10:36:45.732Z,1.20
2019-01-16T10:37:45.686Z,1.20
2019-01-16T10:38:45.701Z,1.20
2019-01-16T10:39:45.715Z,1.20
2019-01-16T10:40:45.732Z,1.20
2019-01-16T10:41:45.749Z,1.20
2019-01-16T10:42:45.758Z,1.20
2019-01-16T10:43:45.775Z,1.20
2019-01-16T10:44:45.789Z,1.20
2019-01-16T10:45:45.808Z,1.20
2019-01-16T10:46:45.827Z,1.20
2019-01-16T10:47:45.842Z,1.20
2019-01-16T10:48:49.831Z,1.20
2019-01-16T10:49:45.866Z,1.20
2019-01-16T10:50:45.886Z,1.20
2019-01-16T10:51:45.899Z,1.30
2019-01-16T10:52:45.913Z,1.20
2019-01-16T10:53:45.929Z,1.30
2019-01-16T10:54:45.946Z,1.20
2019-01-16T10:55:45.963Z,1.20
2019-01-16T10:56:45.977Z,1.20
2019-01-16T10:57:45.994Z,1.20
2019-01-16T10:58:46.006Z,1.20
2019-01-16T10:59:46.024Z,1.30
2019-01-16T11:00:46.040Z,1.30
2019-01-16T11:01:46.056Z,1.20
2019-01-16T11:02:46.075Z,1.30
2019-01-16T11:03:46.088Z,1.30
2019-01-16T11:04:46.107Z,1.20
2019-01-16T11:05:46.124Z,1.20
2019-01-16T11:06:46.136Z,1.20
2019-01-16T11:07:46.152Z,1.30
2019-01-16T11:08:46.169Z,1.30
2019-01-16T11:09:46.188Z,1.20
2019-01-16T11:10:46.203Z,1.20
2019-01-16T11:11:46.220Z,1.20
2019-01-16T11:12:46.231Z,1.20
2019-01-16T11:13:46.261Z,1.20
2019-01-16T11:14:46.268Z,1.20
2019-01-16T11:15:46.280Z,1.20
2019-01-16T11:16:46.299Z,1.30
2019-01-16T11:17:46.317Z,1.20
2019-01-16T11:18:46.330Z,1.20
2019-01-16T11:19:46.348Z,1.20
2019-01-16T11:20:46.366Z,1.20
2019-01-16T11:21:46.383Z,1.20
2019-01-16T11:22:46.400Z,1.30
2019-01-16T11:23:46.418Z,1.20
2019-01-16T11:24:46.436Z,1.20
2019-01-16T11:25:46.453Z,1.20
2019-01-16T11:26:46.469Z,1.20
2019-01-16T11:27:46.487Z,1.30
2019-01-16T11:28:46.505Z,2.60
2019-01-16T11:29:46.523Z,1.20
2019-01-16T11:30:46.539Z,1.20
2019-01-16T11:31:46.555Z,1.20
2019-01-16T11:32:46.572Z,1.30
2019-01-16T11:33:46.591Z,1.20
2019-01-16T11:34:46.610Z,1.20
2019-01-16T11:35:46.639Z,1.20
2019-01-16T11:36:46.647Z,1.20
2019-01-16T11:37:46.661Z,1.20
2019-01-16T11:38:46.677Z,1.60
2019-01-16T11:39:46.696Z,1.20
2019-01-16T11:40:46.717Z,1.20
2019-01-16T11:41:46.732Z,1.20
2019-01-16T11:42:46.751Z,1.20
2019-01-16T11:43:46.771Z,1.20
2019-01-16T11:44:46.786Z,1.20
2019-01-16T11:45:46.804Z,1.20
2019-01-16T11:46:46.830Z,1.20
2019-01-16T11:47:46.846Z,1.20
2019-01-16T11:48:46.922Z,1.20
2019-01-16T11:49:46.880Z,1.20
2019-01-16T11:50:46.900Z,1.20
2019-01-16T11:51:46.916Z,1.20
2019-01-16T11:52:46.931Z,1.20
2019-01-16T11:53:46.949Z,1.20
2019-01-16T11:54:47.042Z,1.20
2019-01-16T11:55:47.006Z,1.20
2019-01-16T11:56:47.002Z,1.20
2019-01-16T11:57:47.020Z,1.50
2019-01-16T11:58:47.040Z,1.20
2019-01-16T11:59:47.057Z,1.20
2019-01-16T12:00:47.073Z,1.50
2019-01-16T12:01:47.093Z,1.30
2019-01-16T12:02:47.110Z,1.20
2019-01-16T12:03:47.127Z,1.20
2019-01-16T12:04:48.735Z,1.20
2019-01-16T12:05:47.163Z,1.20
2019-01-16T12:06:47.180Z,1.20
2019-01-16T12:07:47.200Z,1.20
2019-01-16T12:08:47.216Z,1.20
2019-01-16T12:09:47.236Z,1.30
2019-01-16T12:10:47.254Z,1.20
2019-01-16T12:11:47.271Z,1.20
2019-01-16T12:12:47.287Z,1.20
2019-01-16T12:13:47.309Z,1.40
2019-01-16T12:14:47.323Z,1.30
2019-01-16T12:15:47.344Z,1.20
2019-01-16T12:16:47.370Z,1.30
2019-01-16T12:17:47.380Z,1.50
2019-01-16T12:18:47.395Z,1.20
2019-01-16T12:19:47.414Z,1.20
2019-01-16T12:20:47.438Z,1.20
2019-01-16T12:21:47.451Z,1.30
2019-01-16T12:22:47.468Z,1.20
2019-01-16T12:23:47.485Z,1.20
2019-01-16T12:24:47.506Z,1.70
2019-01-16T12:25:47.519Z,1.20
2019-01-16T12:26:47.539Z,1.20
2019-01-16T12:27:47.554Z,1.30
2019-01-16T12:28:47.572Z,1.20
2019-01-16T12:29:47.591Z,1.30
2019-01-16T12:30:47.608Z,1.20
2019-01-16T12:31:47.630Z,1.20
2019-01-16T12:32:47.645Z,1.30
2019-01-16T12:33:47.662Z,1.20
2019-01-16T12:34:47.682Z,1.30
2019-01-16T12:35:47.700Z,1.20
2019-01-16T12:36:47.714Z,1.40
2019-01-16T12:37:47.737Z,1.20
2019-01-16T12:38:47.753Z,1.20
2019-01-16T12:39:47.773Z,1.20
2019-01-16T12:40:47.793Z,1.20
2019-01-16T12:41:47.811Z,1.40
2019-01-16T12:42:47.837Z,1.40
2019-01-16T12:43:47.847Z,1.20
2019-01-16T12:44:47.864Z,1.20
2019-01-16T12:45:47.885Z,1.20
2019-01-16T12:46:47.902Z,1.20
2019-01-16T12:47:47.922Z,1.20
2019-01-16T12:48:47.943Z,2.00
2019-01-16T12:49:47.960Z,1.40
2019-01-16T12:50:47.981Z,1.30
2019-01-16T12:51:48.000Z,1.30
2019-01-16T12:52:54.102Z,1.30
2019-01-16T12:53:48.047Z,1.40
2019-01-16T12:54:48.058Z,1.30
2019-01-16T12:55:48.081Z,1.30
2019-01-16T12:56:48.094Z,1.20
2019-01-16T12:57:48.116Z,1.30
2019-01-16T12:58:48.134Z,1.30
2019-01-16T12:59:48.157Z,1.40
2019-01-16T13:00:48.173Z,1.30
2019-01-16T13:01:48.195Z,1.30
2019-01-16T13:02:48.216Z,1.50
2019-01-16T13:03:48.233Z,1.50
2019-01-16T13:04:48.254Z,1.40
2019-01-16T13:05:48.275Z,1.60
2019-01-16T13:06:48.294Z,1.30
2019-01-16T13:07:48.312Z,1.30
2019-01-16T13:08:48.336Z,1.60
2019-01-16T13:09:48.354Z,1.40
2019-01-16T13:10:48.374Z,1.40
2019-01-16T13:11:48.395Z,1.30
2019-01-16T13:12:48.417Z,1.50
2019-01-16T13:13:48.435Z,1.30
2019-01-16T13:14:48.457Z,1.40
2019-01-16T13:15:48.478Z,1.30
2019-01-16T13:16:48.498Z,1.30
2019-01-16T13:17:48.518Z,1.40
2019-01-16T13:18:48.536Z,1.30